sensor_id;sensor_type;location;lat;lon;timestamp;pressure;altitude;pressure_sealevel;temperature;humidity
22662;BME280;11497;52.222;21.246;2023-02-22T00:01:55;100210.41;;;3.26;100.00
22662;BME280;11497;52.222;21.246;2023-02-22T00:04:40;100216.56;;;3.06;100.00
22662;BME280;11497;52.222;21.246;2023-02-22T00:07:08;100211.41;;;3.06;100.00
22662;BME280;11497;52.222;21.246;2023-02-22T00:09:36;100210.63;;;2.96;100.00
22662;BME280;11497;52.222;21.246;2023-02-22T00:12:04;100202.06;;;2.82;100.00
22662;BME280;11497;52.222;21.246;2023-02-22T00:14:32;100219.31;;;2.77;100.00
22662;BME280;11497;52.222;21.246;2023-02-22T00:17:00;100220.22;;;2.62;100.00
22662;BME280;11497;52.222;21.246;2023-02-22T00:19:29;100216.81;;;2.60;100.00
22662;BME280;11497;52.222;21.246;2023-02-22T00:21:57;100228.03;;;2.50;100.00
22662;BME280;11497;52.222;21.246;2023-02-22T00:24:25;100228.94;;;2.40;100.00
22662;BME280;11497;52.222;21.246;2023-02-22T00:26:55;100237.53;;;2.39;100.00
22662;BME280;11497;52.222;21.246;2023-02-22T00:29:24;100235.81;;;2.39;100.00
22662;BME280;11497;52.222;21.246;2023-02-22T00:31:52;100239.28;;;2.32;100.00
22662;BME280;11497;52.222;21.246;2023-02-22T00:34:21;100245.34;;;2.11;100.00
22662;BME280;11497;52.222;21.246;2023-02-22T00:36:50;100241.06;;;2.04;100.00
22662;BME280;11497;52.222;21.246;2023-02-22T00:39:18;100243.66;;;1.89;100.00
22662;BME280;11497;52.222;21.246;2023-02-22T00:41:46;100239.34;;;1.76;100.00
22662;BME280;11497;52.222;21.246;2023-02-22T00:44:14;100251.38;;;1.74;100.00
22662;BME280;11497;52.222;21.246;2023-02-22T00:46:42;100241.94;;;1.66;100.00
22662;BME280;11497;52.222;21.246;2023-02-22T00:49:10;100254.84;;;1.62;100.00
22662;BME280;11497;52.222;21.246;2023-02-22T00:51:38;100252.25;;;1.60;100.00
22662;BME280;11497;52.222;21.246;2023-02-22T00:54:07;100254.81;;;1.54;100.00
22662;BME280;11497;52.222;21.246;2023-02-22T00:56:36;100256.56;;;1.57;100.00
22662;BME280;11497;52.222;21.246;2023-02-22T00:59:04;100264.25;;;1.39;100.00
22662;BME280;11497;52.222;21.246;2023-02-22T01:01:32;100264.25;;;1.39;100.00
22662;BME280;11497;52.222;21.246;2023-02-22T01:04:00;100266.84;;;1.28;100.00
22662;BME280;11497;52.222;21.246;2023-02-22T01:06:28;100263.41;;;1.29;100.00
22662;BME280;11497;52.222;21.246;2023-02-22T01:08:58;100268.53;;;1.23;100.00
22662;BME280;11497;52.222;21.246;2023-02-22T01:11:26;100271.97;;;1.22;100.00
22662;BME280;11497;52.222;21.246;2023-02-22T01:13:54;100271.13;;;1.27;100.00
22662;BME280;11497;52.222;21.246;2023-02-22T01:16:22;100273.69;;;1.26;100.00
22662;BME280;11497;52.222;21.246;2023-02-22T01:18:51;100273.72;;;1.41;100.00
22662;BME280;11497;52.222;21.246;2023-02-22T01:21:19;100282.34;;;1.52;100.00
22662;BME280;11497;52.222;21.246;2023-02-22T01:23:47;100289.25;;;1.65;100.00
22662;BME280;11497;52.222;21.246;2023-02-22T01:26:15;100287.50;;;1.86;100.00
22662;BME280;11497;52.222;21.246;2023-02-22T01:28:43;100292.69;;;1.92;100.00
22662;BME280;11497;52.222;21.246;2023-02-22T01:31:10;100297.84;;;1.92;100.00
22662;BME280;11497;52.222;21.246;2023-02-22T01:33:40;100301.28;;;1.97;100.00
22662;BME280;11497;52.222;21.246;2023-02-22T01:36:08;100301.28;;;2.00;100.00
22662;BME280;11497;52.222;21.246;2023-02-22T01:38:38;100298.72;;;2.03;100.00
22662;BME280;11497;52.222;21.246;2023-02-22T01:41:06;100301.28;;;2.05;100.00
22662;BME280;11497;52.222;21.246;2023-02-22T01:43:36;100303.00;;;2.01;100.00
22662;BME280;11497;52.222;21.246;2023-02-22T01:49:03;100299.56;;;2.05;100.00
22662;BME280;11497;52.222;21.246;2023-02-22T01:51:36;100302.13;;;1.87;100.00
22662;BME280;11497;52.222;21.246;2023-02-22T01:59:57;100313.31;;;1.80;100.00
22662;BME280;11497;52.222;21.246;2023-02-22T02:02:28;100306.41;;;1.76;100.00
22662;BME280;11497;52.222;21.246;2023-02-22T02:04:57;100304.69;;;1.76;100.00
22662;BME280;11497;52.222;21.246;2023-02-22T02:07:26;100318.47;;;1.80;100.00
22662;BME280;11497;52.222;21.246;2023-02-22T02:10:04;100311.59;;;1.79;100.00
22662;BME280;11497;52.222;21.246;2023-02-22T02:12:34;100319.31;;;1.74;100.00
22662;BME280;11497;52.222;21.246;2023-02-22T02:15:27;100321.91;;;1.68;100.00
22662;BME280;11497;52.222;21.246;2023-02-22T02:18:05;100318.47;;;1.67;100.00
22662;BME280;11497;52.222;21.246;2023-02-22T02:31:52;100339.16;;;1.99;100.00
22662;BME280;11497;52.222;21.246;2023-02-22T02:34:43;100342.56;;;2.18;100.00
22662;BME280;11497;52.222;21.246;2023-02-22T02:42:56;100340.84;;;2.48;100.00
22662;BME280;11497;52.222;21.246;2023-02-22T02:48:16;100349.44;;;2.59;100.00
22662;BME280;11497;52.222;21.246;2023-02-22T02:50:49;100346.00;;;2.57;100.00
22662;BME280;11497;52.222;21.246;2023-02-22T02:53:21;100359.75;;;2.62;100.00
22662;BME280;11497;52.222;21.246;2023-02-22T02:55:52;100347.72;;;2.58;100.00
22662;BME280;11497;52.222;21.246;2023-02-22T02:58:22;100346.00;;;2.57;100.00
22662;BME280;11497;52.222;21.246;2023-02-22T03:00:53;100361.50;;;2.55;100.00
22662;BME280;11497;52.222;21.246;2023-02-22T03:15:01;100374.44;;;2.48;100.00
22662;BME280;11497;52.222;21.246;2023-02-22T03:17:53;100374.44;;;2.46;100.00
22662;BME280;11497;52.222;21.246;2023-02-22T03:20:31;100372.72;;;2.47;100.00
22662;BME280;11497;52.222;21.246;2023-02-22T03:26:04;100377.84;;;2.63;100.00
22662;BME280;11497;52.222;21.246;2023-02-22T03:28:39;100383.03;;;2.57;100.00
22662;BME280;11497;52.222;21.246;2023-02-22T03:31:15;100386.47;;;2.59;100.00
22662;BME280;11497;52.222;21.246;2023-02-22T03:34:07;100390.75;;;2.68;100.00
22662;BME280;11497;52.222;21.246;2023-02-22T03:36:47;100394.19;;;2.64;100.00
22662;BME280;11497;52.222;21.246;2023-02-22T03:39:19;100387.28;;;2.75;100.00
22662;BME280;11497;52.222;21.246;2023-02-22T03:41:49;100399.34;;;2.79;100.00
22662;BME280;11497;52.222;21.246;2023-02-22T03:44:26;100392.47;;;2.81;100.00
22662;BME280;11497;52.222;21.246;2023-02-22T03:46:59;100398.50;;;2.76;100.00
22662;BME280;11497;52.222;21.246;2023-02-22T03:52:02;100401.06;;;2.92;100.00
22662;BME280;11497;52.222;21.246;2023-02-22T03:54:32;100401.94;;;2.90;100.00
22662;BME280;11497;52.222;21.246;2023-02-22T03:57:21;100408.81;;;2.92;100.00
22662;BME280;11497;52.222;21.246;2023-02-22T04:00:02;100413.13;;;2.87;100.00
22662;BME280;11497;52.222;21.246;2023-02-22T04:02:40;100416.56;;;2.98;100.00
22662;BME280;11497;52.222;21.246;2023-02-22T04:05:13;100418.28;;;2.93;100.00
22662;BME280;11497;52.222;21.246;2023-02-22T04:08:32;100413.13;;;2.90;100.00
22662;BME280;11497;52.222;21.246;2023-02-22T04:11:06;100421.75;;;2.86;100.00
22662;BME280;11497;52.222;21.246;2023-02-22T04:13:34;100416.59;;;2.79;100.00
22662;BME280;11497;52.222;21.246;2023-02-22T04:16:02;100426.06;;;2.78;100.00
22662;BME280;11497;52.222;21.246;2023-02-22T04:18:31;100431.22;;;2.69;100.00
22662;BME280;11497;52.222;21.246;2023-02-22T04:21:00;100429.50;;;2.92;100.00
22662;BME280;11497;52.222;21.246;2023-02-22T04:23:36;100437.25;;;2.95;100.00
22662;BME280;11497;52.222;21.246;2023-02-22T04:26:05;100435.47;;;3.07;100.00
22662;BME280;11497;52.222;21.246;2023-02-22T04:28:32;100438.97;;;2.90;99.14
22662;BME280;11497;52.222;21.246;2023-02-22T04:31:15;100438.97;;;2.84;97.97
22662;BME280;11497;52.222;21.246;2023-02-22T04:33:44;100449.31;;;2.78;97.47
22662;BME280;11497;52.222;21.246;2023-02-22T04:36:15;100445.88;;;2.88;97.04
22662;BME280;11497;52.222;21.246;2023-02-22T04:38:44;100454.50;;;2.81;94.60
22662;BME280;11497;52.222;21.246;2023-02-22T04:41:13;100449.34;;;2.60;94.24
22662;BME280;11497;52.222;21.246;2023-02-22T04:43:41;100449.31;;;2.72;93.19
22662;BME280;11497;52.222;21.246;2023-02-22T04:46:21;100456.22;;;2.70;91.87
22662;BME280;11497;52.222;21.246;2023-02-22T04:48:51;100455.38;;;2.54;91.54
22662;BME280;11497;52.222;21.246;2023-02-22T04:51:22;100453.66;;;2.56;91.96
22662;BME280;11497;52.222;21.246;2023-02-22T04:53:56;100457.06;;;2.61;91.46
22662;BME280;11497;52.222;21.246;2023-02-22T04:56:25;100453.66;;;2.56;91.28
22662;BME280;11497;52.222;21.246;2023-02-22T04:58:52;100457.94;;;2.44;91.48
22662;BME280;11497;52.222;21.246;2023-02-22T05:01:20;100454.50;;;2.45;91.65
22662;BME280;11497;52.222;21.246;2023-02-22T05:03:50;100457.06;;;2.36;91.35
22662;BME280;11497;52.222;21.246;2023-02-22T05:06:18;100454.50;;;2.36;91.16
22662;BME280;11497;52.222;21.246;2023-02-22T05:08:46;100465.69;;;2.45;91.66
22662;BME280;11497;52.222;21.246;2023-02-22T05:11:14;100462.25;;;2.36;91.16
22662;BME280;11497;52.222;21.246;2023-02-22T05:13:42;100461.34;;;2.26;91.64
22662;BME280;11497;52.222;21.246;2023-02-22T05:16:10;100466.53;;;2.33;92.01
22662;BME280;11497;52.222;21.246;2023-02-22T05:18:38;100468.25;;;2.25;92.20
22662;BME280;11497;52.222;21.246;2023-02-22T05:21:07;100463.94;;;2.14;92.41
22662;BME280;11497;52.222;21.246;2023-02-22T05:23:34;100476.88;;;2.43;92.09
22662;BME280;11497;52.222;21.246;2023-02-22T05:26:03;100476.91;;;2.49;90.43
22662;BME280;11497;52.222;21.246;2023-02-22T05:28:32;100482.06;;;2.49;89.44
22662;BME280;11497;52.222;21.246;2023-02-22T05:31:01;100486.38;;;2.59;87.26
22662;BME280;11497;52.222;21.246;2023-02-22T05:33:28;100494.06;;;2.28;86.53
22662;BME280;11497;52.222;21.246;2023-02-22T05:35:56;100491.53;;;2.39;86.36
22662;BME280;11497;52.222;21.246;2023-02-22T05:38:24;100496.66;;;2.33;85.95
22662;BME280;11497;52.222;21.246;2023-02-22T05:40:52;100499.25;;;2.28;86.18
22662;BME280;11497;52.222;21.246;2023-02-22T05:43:20;100503.56;;;2.31;86.55
22662;BME280;11497;52.222;21.246;2023-02-22T05:45:48;100500.97;;;2.36;85.87
22662;BME280;11497;52.222;21.246;2023-02-22T05:48:16;100508.75;;;2.39;85.99
22662;BME280;11497;52.222;21.246;2023-02-22T05:50:44;100502.72;;;2.40;84.83
22662;BME280;11497;52.222;21.246;2023-02-22T05:53:12;100501.84;;;2.39;84.43
22662;BME280;11497;52.222;21.246;2023-02-22T05:55:40;100506.13;;;2.29;84.78
22662;BME280;11497;52.222;21.246;2023-02-22T05:58:08;100519.03;;;2.29;84.96
22662;BME280;11497;52.222;21.246;2023-02-22T06:00:36;100507.00;;;2.38;84.75
22662;BME280;11497;52.222;21.246;2023-02-22T06:03:06;100512.16;;;2.31;84.43
22662;BME280;11497;52.222;21.246;2023-02-22T06:05:36;100513.03;;;2.33;84.32
22662;BME280;11497;52.222;21.246;2023-02-22T06:08:05;100525.09;;;2.41;83.91
22662;BME280;11497;52.222;21.246;2023-02-22T06:10:33;100526.81;;;2.42;84.47
22662;BME280;11497;52.222;21.246;2023-02-22T06:13:03;100531.16;;;2.55;84.56
22662;BME280;11497;52.222;21.246;2023-02-22T06:15:32;100530.28;;;2.71;83.42
22662;BME280;11497;52.222;21.246;2023-02-22T06:18:00;100535.44;;;2.65;83.81
22662;BME280;11497;52.222;21.246;2023-02-22T06:20:30;100538.91;;;2.76;82.50
22662;BME280;11497;52.222;21.246;2023-02-22T06:22:58;100548.38;;;2.70;82.01
22662;BME280;11497;52.222;21.246;2023-02-22T06:25:28;100545.81;;;2.76;82.20
22662;BME280;11497;52.222;21.246;2023-02-22T06:28:00;100550.97;;;2.77;81.75
22662;BME280;11497;52.222;21.246;2023-02-22T06:30:29;100550.97;;;2.68;81.36
22662;BME280;11497;52.222;21.246;2023-02-22T06:32:57;100554.41;;;2.55;81.61
22662;BME280;11497;52.222;21.246;2023-02-22T06:35:25;100558.72;;;2.71;81.24
22662;BME280;11497;52.222;21.246;2023-02-22T06:37:53;100561.31;;;2.71;81.20
22662;BME280;11497;52.222;21.246;2023-02-22T06:40:21;100571.66;;;2.80;80.63
22662;BME280;11497;52.222;21.246;2023-02-22T06:42:48;100576.84;;;2.80;80.38
22662;BME280;11497;52.222;21.246;2023-02-22T06:45:17;100576.84;;;2.80;80.11
22662;BME280;11497;52.222;21.246;2023-02-22T06:47:45;100578.53;;;2.69;79.71
22662;BME280;11497;52.222;21.246;2023-02-22T06:50:27;100580.28;;;2.79;80.19
22662;BME280;11497;52.222;21.246;2023-02-22T06:52:56;100584.59;;;2.91;79.47
22662;BME280;11497;52.222;21.246;2023-02-22T06:55:27;100595.81;;;3.02;78.74
22662;BME280;11497;52.222;21.246;2023-02-22T06:57:55;100589.75;;;3.05;77.39
22662;BME280;11497;52.222;21.246;2023-02-22T07:00:25;100595.78;;;3.04;76.41
22662;BME280;11497;52.222;21.246;2023-02-22T07:02:53;100591.50;;;2.98;76.37
22662;BME280;11497;52.222;21.246;2023-02-22T07:05:22;100591.50;;;3.13;75.60
22662;BME280;11497;52.222;21.246;2023-02-22T07:07:52;100591.50;;;2.95;75.17
22662;BME280;11497;52.222;21.246;2023-02-22T07:10:26;100604.44;;;2.93;74.97
22662;BME280;11497;52.222;21.246;2023-02-22T07:12:55;100602.69;;;2.89;74.84
22662;BME280;11497;52.222;21.246;2023-02-22T07:15:25;100606.16;;;2.97;73.68
22662;BME280;11497;52.222;21.246;2023-02-22T07:17:54;100605.31;;;3.02;73.59
22662;BME280;11497;52.222;21.246;2023-02-22T07:20:24;100606.13;;;3.10;73.15
22662;BME280;11497;52.222;21.246;2023-02-22T07:22:52;100606.16;;;3.16;72.67
22662;BME280;11497;52.222;21.246;2023-02-22T07:25:21;100607.88;;;3.08;72.53
22662;BME280;11497;52.222;21.246;2023-02-22T07:27:49;100610.47;;;2.97;71.65
22662;BME280;11497;52.222;21.246;2023-02-22T07:30:22;100610.47;;;3.00;73.04
22662;BME280;11497;52.222;21.246;2023-02-22T07:32:53;100611.31;;;3.13;72.56
22662;BME280;11497;52.222;21.246;2023-02-22T07:35:42;100611.31;;;3.31;72.41
22662;BME280;11497;52.222;21.246;2023-02-22T07:38:11;100611.34;;;3.34;70.05
22662;BME280;11497;52.222;21.246;2023-02-22T07:40:40;100604.44;;;3.39;69.82
22662;BME280;11497;52.222;21.246;2023-02-22T07:43:35;100606.16;;;3.46;69.49
22662;BME280;11497;52.222;21.246;2023-02-22T07:46:04;100606.97;;;3.57;69.43
22662;BME280;11497;52.222;21.246;2023-02-22T07:48:31;100609.56;;;3.73;67.83
22662;BME280;11497;52.222;21.246;2023-02-22T07:51:00;100604.38;;;3.66;67.43
22662;BME280;11497;52.222;21.246;2023-02-22T07:53:30;100609.56;;;3.60;67.33
22662;BME280;11497;52.222;21.246;2023-02-22T07:55:59;100613.00;;;3.81;66.73
22662;BME280;11497;52.222;21.246;2023-02-22T07:58:29;100613.88;;;3.69;66.36
22662;BME280;11497;52.222;21.246;2023-02-22T08:00:58;100613.00;;;3.78;66.89
22662;BME280;11497;52.222;21.246;2023-02-22T08:03:26;100610.31;;;4.11;66.12
22662;BME280;11497;52.222;21.246;2023-02-22T08:05:56;100616.31;;;4.22;65.20
22662;BME280;11497;52.222;21.246;2023-02-22T08:08:24;100612.00;;;4.24;64.58
22662;BME280;11497;52.222;21.246;2023-02-22T08:10:52;100605.94;;;4.25;63.84
22662;BME280;11497;52.222;21.246;2023-02-22T08:13:20;100614.59;;;4.15;63.59
22662;BME280;11497;52.222;21.246;2023-02-22T08:15:51;100612.06;;;3.98;63.13
22662;BME280;11497;52.222;21.246;2023-02-22T08:18:21;100609.53;;;3.85;63.03
22662;BME280;11497;52.222;21.246;2023-02-22T08:20:50;100609.47;;;4.00;63.16
22662;BME280;11497;52.222;21.246;2023-02-22T08:23:22;100616.44;;;3.86;62.81
22662;BME280;11497;52.222;21.246;2023-02-22T08:25:52;100619.78;;;4.18;62.87
22662;BME280;11497;52.222;21.246;2023-02-22T08:28:22;100630.13;;;4.27;62.69
22662;BME280;11497;52.222;21.246;2023-02-22T08:30:51;100624.06;;;4.24;62.49
22662;BME280;11497;52.222;21.246;2023-02-22T08:33:19;100628.38;;;4.32;62.19
22662;BME280;11497;52.222;21.246;2023-02-22T08:35:48;100623.94;;;4.51;62.59
22662;BME280;11497;52.222;21.246;2023-02-22T08:38:23;100623.91;;;4.59;61.30
22662;BME280;11497;52.222;21.246;2023-02-22T08:40:52;100622.97;;;4.72;60.86
22662;BME280;11497;52.222;21.246;2023-02-22T08:43:20;100622.78;;;4.99;60.75
22662;BME280;11497;52.222;21.246;2023-02-22T08:45:49;100632.31;;;4.99;60.11
22662;BME280;11497;52.222;21.246;2023-02-22T08:48:19;100633.78;;;5.32;59.41
22662;BME280;11497;52.222;21.246;2023-02-22T08:50:47;100636.34;;;5.35;58.72
22662;BME280;11497;52.222;21.246;2023-02-22T08:53:15;100634.94;;;4.94;58.29
22662;BME280;11497;52.222;21.246;2023-02-22T08:55:44;100640.16;;;4.84;58.23
22662;BME280;11497;52.222;21.246;2023-02-22T08:58:12;100640.16;;;4.85;58.06
22662;BME280;11497;52.222;21.246;2023-02-22T09:00:41;100645.34;;;4.85;58.15
22662;BME280;11497;52.222;21.246;2023-02-22T09:03:13;100651.50;;;4.71;58.08
22662;BME280;11497;52.222;21.246;2023-02-22T09:05:42;100651.44;;;4.78;58.39
22662;BME280;11497;52.222;21.246;2023-02-22T09:08:11;100655.47;;;5.22;58.50
22662;BME280;11497;52.222;21.246;2023-02-22T09:10:39;100648.38;;;5.45;59.20
22662;BME280;11497;52.222;21.246;2023-02-22T09:13:07;100647.38;;;5.63;59.22
22662;BME280;11497;52.222;21.246;2023-02-22T09:15:35;100660.88;;;6.02;58.27
22662;BME280;11497;52.222;21.246;2023-02-22T09:18:06;100654.31;;;5.59;56.09
22662;BME280;11497;52.222;21.246;2023-02-22T09:20:35;100663.06;;;5.48;55.62
22662;BME280;11497;52.222;21.246;2023-02-22T09:23:04;100664.84;;;5.43;55.72
22662;BME280;11497;52.222;21.246;2023-02-22T09:25:33;100663.19;;;5.31;55.97
22662;BME280;11497;52.222;21.246;2023-02-22T09:28:01;100664.28;;;4.99;56.38
22662;BME280;11497;52.222;21.246;2023-02-22T09:30:32;100663.41;;;5.05;56.27
22662;BME280;11497;52.222;21.246;2023-02-22T09:33:05;100665.38;;;4.62;56.31
22662;BME280;11497;52.222;21.246;2023-02-22T09:35:41;100660.19;;;4.60;56.65
22662;BME280;11497;52.222;21.246;2023-02-22T09:38:09;100661.06;;;4.58;57.72
22662;BME280;11497;52.222;21.246;2023-02-22T09:41:12;100665.25;;;4.82;57.40
22662;BME280;11497;52.222;21.246;2023-02-22T09:44:16;100670.38;;;4.91;56.73
22662;BME280;11497;52.222;21.246;2023-02-22T09:46:47;100668.81;;;4.64;56.51
22662;BME280;11497;52.222;21.246;2023-02-22T09:49:36;100668.91;;;4.37;56.61
22662;BME280;11497;52.222;21.246;2023-02-22T09:52:20;100663.78;;;4.30;57.46
22662;BME280;11497;52.222;21.246;2023-02-22T09:55:38;100671.56;;;4.30;57.26
22662;BME280;11497;52.222;21.246;2023-02-22T09:57:45;100675.06;;;4.11;57.54
22662;BME280;11497;52.222;21.246;2023-02-22T10:00:20;100671.56;;;4.21;58.10
22662;BME280;11497;52.222;21.246;2023-02-22T10:05:50;100675.94;;;3.99;58.30
22662;BME280;11497;52.222;21.246;2023-02-22T10:08:28;100677.66;;;4.04;59.12
22662;BME280;11497;52.222;21.246;2023-02-22T10:11:43;100681.13;;;4.03;59.17
22662;BME280;11497;52.222;21.246;2023-02-22T10:22:53;100700.16;;;3.44;60.86
22662;BME280;11497;52.222;21.246;2023-02-22T10:25:26;100695.84;;;3.41;61.85
22662;BME280;11497;52.222;21.246;2023-02-22T10:28:14;100697.56;;;3.30;62.76
22662;BME280;11497;52.222;21.246;2023-02-22T10:30:56;100701.00;;;3.29;63.07
22662;BME280;11497;52.222;21.246;2023-02-22T10:33:47;100706.13;;;2.98;63.89
22662;BME280;11497;52.222;21.246;2023-02-22T10:36:18;100704.34;;;2.82;64.51
22662;BME280;11497;52.222;21.246;2023-02-22T10:38:55;100704.31;;;2.70;65.73
22662;BME280;11497;52.222;21.246;2023-02-22T10:41:32;100710.38;;;2.83;66.29
22662;BME280;11497;52.222;21.246;2023-02-22T10:44:02;100707.81;;;2.87;66.32
22662;BME280;11497;52.222;21.246;2023-02-22T10:46:31;100715.53;;;2.75;65.88
22662;BME280;11497;52.222;21.246;2023-02-22T10:49:04;100716.31;;;2.53;65.89
22662;BME280;11497;52.222;21.246;2023-02-22T10:51:36;100716.31;;;2.53;65.54
22662;BME280;11497;52.222;21.246;2023-02-22T10:56:46;100728.28;;;2.39;65.75
22662;BME280;11497;52.222;21.246;2023-02-22T11:01:57;100716.41;;;2.80;65.14
22662;BME280;11497;52.222;21.246;2023-02-22T11:04:26;100718.97;;;2.79;64.85
22662;BME280;11497;52.222;21.246;2023-02-22T11:07:08;100712.06;;;2.73;64.70
22662;BME280;11497;52.222;21.246;2023-02-22T11:09:54;100709.50;;;2.79;64.22
22662;BME280;11497;52.222;21.246;2023-02-22T11:15:34;100711.25;;;2.86;64.01
22662;BME280;11497;52.222;21.246;2023-02-22T11:18:02;100711.31;;;3.17;64.26
22662;BME280;11497;52.222;21.246;2023-02-22T11:20:36;100711.34;;;3.20;62.64
22662;BME280;11497;52.222;21.246;2023-02-22T11:23:06;100711.38;;;3.41;62.66
22662;BME280;11497;52.222;21.246;2023-02-22T11:25:37;100718.25;;;3.54;62.68
22662;BME280;11497;52.222;21.246;2023-02-22T11:28:11;100707.94;;;3.45;61.54
22662;BME280;11497;52.222;21.246;2023-02-22T11:30:43;100711.38;;;3.46;60.80
22662;BME280;11497;52.222;21.246;2023-02-22T11:35:57;100723.44;;;3.30;60.05
22662;BME280;11497;52.222;21.246;2023-02-22T11:41:10;100725.16;;;3.34;58.52
22662;BME280;11497;52.222;21.246;2023-02-22T11:43:46;100721.72;;;3.44;58.61
22662;BME280;11497;52.222;21.246;2023-02-22T11:46:20;100725.97;;;3.10;58.28
22662;BME280;11497;52.222;21.246;2023-02-22T11:49:01;100720.00;;;3.42;58.27
22662;BME280;11497;52.222;21.246;2023-02-22T11:51:52;100725.13;;;3.22;58.20
22662;BME280;11497;52.222;21.246;2023-02-22T12:00:22;100729.41;;;3.06;57.12
22662;BME280;11497;52.222;21.246;2023-02-22T12:11:21;100740.63;;;3.19;56.17
22662;BME280;11497;52.222;21.246;2023-02-22T12:16:52;100733.78;;;3.36;56.23
22662;BME280;11497;52.222;21.246;2023-02-22T12:19:56;100733.81;;;3.79;55.20
22662;BME280;11497;52.222;21.246;2023-02-22T12:22:37;100725.19;;;3.89;54.91
22662;BME280;11497;52.222;21.246;2023-02-22T12:25:25;100731.19;;;3.95;54.19
22662;BME280;11497;52.222;21.246;2023-02-22T12:31:01;100725.97;;;4.24;53.97
22662;BME280;11497;52.222;21.246;2023-02-22T12:36:38;100732.03;;;4.17;53.33
22662;BME280;11497;52.222;21.246;2023-02-22T12:42:32;100728.59;;;4.15;53.05
22662;BME280;11497;52.222;21.246;2023-02-22T12:48:04;100738.13;;;3.66;52.72
22662;BME280;11497;52.222;21.246;2023-02-22T12:50:36;100744.13;;;3.38;53.12
22662;BME280;11497;52.222;21.246;2023-02-22T12:53:26;100742.44;;;3.65;53.02
22662;BME280;11497;52.222;21.246;2023-02-22T12:56:21;100756.22;;;3.46;53.34
22662;BME280;11497;52.222;21.246;2023-02-22T12:58:59;100743.28;;;3.45;53.59
22662;BME280;11497;52.222;21.246;2023-02-22T13:01:37;100752.75;;;3.38;53.50
22662;BME280;11497;52.222;21.246;2023-02-22T13:04:08;100752.78;;;3.41;53.84
22662;BME280;11497;52.222;21.246;2023-02-22T13:12:21;100748.47;;;3.58;53.26
22662;BME280;11497;52.222;21.246;2023-02-22T13:14:59;100752.78;;;3.65;53.65
22662;BME280;11497;52.222;21.246;2023-02-22T13:20:27;100771.75;;;3.46;53.45
22662;BME280;11497;52.222;21.246;2023-02-22T13:23:03;100771.69;;;3.26;53.62
22662;BME280;11497;52.222;21.246;2023-02-22T13:25:47;100779.47;;;3.29;53.89
22662;BME280;11497;52.222;21.246;2023-02-22T13:28:40;100781.19;;;3.23;54.06
22662;BME280;11497;52.222;21.246;2023-02-22T13:31:41;100778.59;;;3.24;54.22
22662;BME280;11497;52.222;21.246;2023-02-22T13:54:02;100787.16;;;3.13;55.32
22662;BME280;11497;52.222;21.246;2023-02-22T13:56:32;100786.28;;;3.00;54.79
22662;BME280;11497;52.222;21.246;2023-02-22T13:59:02;100783.66;;;2.92;54.68
22662;BME280;11497;52.222;21.246;2023-02-22T14:01:45;100793.03;;;2.71;54.51
22662;BME280;11497;52.222;21.246;2023-02-22T14:06:47;100788.00;;;2.96;55.16
22662;BME280;11497;52.222;21.246;2023-02-22T14:09:39;100786.19;;;2.80;55.37
22662;BME280;11497;52.222;21.246;2023-02-22T14:12:04;100792.16;;;2.67;55.34
22662;BME280;11497;52.222;21.246;2023-02-22T14:14:32;100796.44;;;2.59;55.01
22662;BME280;11497;52.222;21.246;2023-02-22T14:17:24;100799.03;;;2.65;54.96
22662;BME280;11497;52.222;21.246;2023-02-22T14:22:44;100794.63;;;2.44;56.65
22662;BME280;11497;52.222;21.246;2023-02-22T14:25:37;100806.81;;;2.70;56.02
22662;BME280;11497;52.222;21.246;2023-02-22T14:31:14;100805.91;;;2.63;55.38
22662;BME280;11497;52.222;21.246;2023-02-22T14:36:51;100806.69;;;2.44;56.13
22662;BME280;11497;52.222;21.246;2023-02-22T14:42:03;100809.09;;;2.16;56.08
22662;BME280;11497;52.222;21.246;2023-02-22T14:44:52;100803.00;;;2.10;56.59
22662;BME280;11497;52.222;21.246;2023-02-22T14:50:40;100792.50;;;1.90;56.86
22662;BME280;11497;52.222;21.246;2023-02-22T14:53:19;100812.50;;;2.12;57.02
22662;BME280;11497;52.222;21.246;2023-02-22T14:56:14;100812.59;;;2.27;56.27
22662;BME280;11497;52.222;21.246;2023-02-22T14:58:57;100808.28;;;2.26;56.40
22662;BME280;11497;52.222;21.246;2023-02-22T15:01:36;100809.06;;;2.13;56.14
22662;BME280;11497;52.222;21.246;2023-02-22T15:04:27;100814.91;;;1.92;56.09
22662;BME280;11497;52.222;21.246;2023-02-22T15:06:58;100809.75;;;1.92;56.39
22662;BME280;11497;52.222;21.246;2023-02-22T15:09:31;100822.69;;;1.98;56.69
22662;BME280;11497;52.222;21.246;2023-02-22T15:14:34;100819.03;;;1.71;57.57
22662;BME280;11497;52.222;21.246;2023-02-22T15:17:18;100813.22;;;1.96;57.27
22662;BME280;11497;52.222;21.246;2023-02-22T15:19:48;100813.88;;;1.77;57.65
22662;BME280;11497;52.222;21.246;2023-02-22T15:22:31;100823.34;;;1.75;57.52
22662;BME280;11497;52.222;21.246;2023-02-22T15:25:04;100814.63;;;1.62;57.33
22662;BME280;11497;52.222;21.246;2023-02-22T15:27:34;100831.75;;;1.55;57.10
22662;BME280;11497;52.222;21.246;2023-02-22T15:30:18;100826.56;;;1.51;57.31
22662;BME280;11497;52.222;21.246;2023-02-22T15:32:47;100832.41;;;1.36;57.60
22662;BME280;11497;52.222;21.246;2023-02-22T15:35:31;100824.75;;;1.42;57.33
22662;BME280;11497;52.222;21.246;2023-02-22T15:38:27;100828.16;;;1.41;57.29
22662;BME280;11497;52.222;21.246;2023-02-22T15:41:05;100835.09;;;1.45;57.33
22662;BME280;11497;52.222;21.246;2023-02-22T15:43:35;100830.91;;;1.55;57.61
22662;BME280;11497;52.222;21.246;2023-02-22T15:46:02;100830.84;;;1.50;57.79
22662;BME280;11497;52.222;21.246;2023-02-22T15:48:33;100842.91;;;1.51;57.49